Time;durP1;ratioP1;P1;durP2;ratioP2;P2;SDS_P1;SDS_P2;PMS_P1;PMS_P2;Temp;Humidity;BMP_temperature;BMP_pressure;BME280_temperature;BME280_humidity;BME280_pressure;Samples;Min_cycle;Max_cycle;Signal;HPM_P1;HPM_P2
2024/01/02 05:01:18;;;;;;;2.20;1.98;;;4.90;99.90;;;;;;5460225;23;20258;-72
2024/01/02 05:03:45;;;;;;;4.00;1.73;;;4.90;99.90;;;;;;4935362;29;20212;-72
2024/01/02 05:06:12;;;;;;;1.30;1.15;;;4.90;99.90;;;;;;4934111;29;20215;-70
2024/01/02 05:08:38;;;;;;;3.67;1.90;;;5.00;99.90;;;;;;4932817;29;20208;-71
2024/01/02 05:11:05;;;;;;;1.00;1.00;;;5.00;99.90;;;;;;4940358;29;20233;-71
2024/01/02 05:13:32;;;;;;;1.52;1.42;;;5.00;99.90;;;;;;4936752;29;20213;-72
2024/01/02 05:15:58;;;;;;;2.28;0.82;;;5.00;99.90;;;;;;4938650;29;20229;-70
2024/01/02 05:18:26;;;;;;;1.25;1.08;;;5.10;99.90;;;;;;4936645;29;20224;-71
2024/01/02 05:20:53;;;;;;;2.58;1.25;;;5.10;99.90;;;;;;4936052;29;20239;-72
2024/01/02 05:23:20;;;;;;;1.70;1.60;;;5.10;99.90;;;;;;4936366;29;20212;-71
2024/01/02 05:25:46;;;;;;;6.75;1.23;;;5.10;99.90;;;;;;4938030;29;20671;-71
2024/01/02 05:28:13;;;;;;;6.82;1.75;;;5.20;99.90;;;;;;4935539;29;20204;-72
2024/01/02 05:30:40;;;;;;;1.15;1.05;;;5.20;99.90;;;;;;4933959;29;20612;-72
2024/01/02 05:33:06;;;;;;;0.95;0.95;;;5.20;99.90;;;;;;4933966;29;20221;-72
2024/01/02 05:35:34;;;;;;;0.38;0.38;;;5.30;99.90;;;;;;4933418;29;20532;-72
2024/01/02 05:38:02;;;;;;;3.10;1.27;;;5.30;99.90;;;;;;4930177;29;20332;-72
2024/01/02 05:40:28;;;;;;;4.10;1.00;;;5.30;99.90;;;;;;4933173;29;20247;-71
2024/01/02 05:42:55;;;;;;;1.70;1.67;;;5.30;99.90;;;;;;4933605;29;20592;-72
2024/01/02 05:45:22;;;;;;;2.80;1.33;;;5.30;99.90;;;;;;4932641;29;20220;-72
2024/01/02 05:47:49;;;;;;;0.25;0.25;;;5.30;99.90;;;;;;4929968;29;20213;-72
2024/01/02 05:50:16;;;;;;;2.92;1.33;;;5.40;99.90;;;;;;4932535;29;20211;-72
2024/01/02 05:52:44;;;;;;;1.85;0.88;;;5.40;99.90;;;;;;4929666;29;20424;-72
2024/01/02 05:55:11;;;;;;;2.85;0.68;;;5.40;99.90;;;;;;4926688;29;20223;-72
2024/01/02 05:57:38;;;;;;;1.75;0.47;;;5.40;99.90;;;;;;4921462;29;20224;-72
2024/01/02 06:00:06;;;;;;;3.40;0.77;;;5.40;99.90;;;;;;4921068;29;20679;-72
2024/01/02 06:02:33;;;;;;;4.25;1.00;;;5.50;99.90;;;;;;4924604;29;20247;-72
2024/01/02 06:05:00;;;;;;;3.00;0.70;;;5.50;99.90;;;;;;4920622;29;20233;-72
2024/01/02 06:07:26;;;;;;;4.32;1.48;;;5.50;99.90;;;;;;4925456;29;20213;-72
2024/01/02 06:09:55;;;;;;;2.30;1.10;;;5.50;99.90;;;;;;4921494;29;20222;-72
2024/01/02 06:12:21;;;;;;;0.95;0.95;;;5.50;99.90;;;;;;4925571;29;20238;-72
2024/01/02 06:14:48;;;;;;;3.70;1.88;;;5.50;99.90;;;;;;4924730;29;20243;-72
2024/01/02 06:17:15;;;;;;;2.85;0.73;;;5.40;99.90;;;;;;4927337;29;20217;-72
2024/01/02 06:19:41;;;;;;;0.90;0.63;;;5.50;99.90;;;;;;4924868;29;20213;-71
2024/01/02 06:22:08;;;;;;;0.43;0.43;;;5.50;99.90;;;;;;4924462;29;20235;-71
2024/01/02 06:24:35;;;;;;;3.25;2.33;;;5.50;99.90;;;;;;4930428;29;20213;-71
2024/01/02 06:27:03;;;;;;;0.60;0.60;;;5.50;99.90;;;;;;4923650;29;20213;-71
2024/01/02 06:29:29;;;;;;;1.45;1.40;;;5.50;99.90;;;;;;4928305;29;20235;-71
2024/01/02 06:31:56;;;;;;;1.05;1.05;;;5.50;99.90;;;;;;4922723;29;20240;-72
2024/01/02 06:34:23;;;;;;;0.55;0.55;;;5.50;99.90;;;;;;4919530;29;20212;-72
2024/01/02 06:36:49;;;;;;;12.23;1.25;;;5.50;99.90;;;;;;4921496;29;20240;-72
2024/01/02 06:39:16;;;;;;;1.35;1.25;;;5.50;99.90;;;;;;4930254;29;20207;-72
2024/01/02 06:41:44;;;;;;;0.30;0.30;;;5.50;99.90;;;;;;4921115;29;20274;-72
2024/01/02 06:44:12;;;;;;;2.30;1.00;;;5.50;99.90;;;;;;4926292;29;20212;-72
2024/01/02 06:46:39;;;;;;;2.90;1.30;;;5.40;99.90;;;;;;4925840;29;20217;-72
2024/01/02 06:49:06;;;;;;;11.13;1.13;;;5.40;99.90;;;;;;4921909;29;20209;-71
2024/01/02 06:51:33;;;;;;;3.38;1.13;;;5.40;99.90;;;;;;4920553;29;20248;-72
2024/01/02 06:53:59;;;;;;;5.05;1.35;;;5.40;99.90;;;;;;4929186;29;20214;-70
2024/01/02 06:56:27;;;;;;;0.20;0.20;;;5.40;99.90;;;;;;4927259;29;20228;-72
2024/01/02 06:58:55;;;;;;;0.90;0.90;;;5.40;99.90;;;;;;4926378;29;20268;-72
2024/01/02 07:01:24;;;;;;;4.68;1.05;;;5.40;99.90;;;;;;4921256;29;20240;-72
2024/01/02 07:03:50;;;;;;;1.27;1.02;;;5.40;99.90;;;;;;4919861;29;20581;-72
2024/01/02 07:06:17;;;;;;;2.25;0.50;;;5.40;99.90;;;;;;4919018;29;20208;-71
2024/01/02 07:08:45;;;;;;;1.20;1.10;;;5.40;99.90;;;;;;4925357;29;20234;-72
2024/01/02 07:11:12;;;;;;;0.55;0.55;;;5.40;99.90;;;;;;4922230;29;20237;-72
2024/01/02 07:13:39;;;;;;;0.70;0.70;;;5.30;99.90;;;;;;4921144;29;20212;-71
2024/01/02 07:16:06;;;;;;;1.40;1.20;;;5.30;99.90;;;;;;4920706;29;20597;-72
2024/01/02 07:18:34;;;;;;;2.05;0.88;;;5.30;99.90;;;;;;4923742;29;20211;-71
2024/01/02 07:21:01;;;;;;;0.52;0.32;;;5.30;99.90;;;;;;4922797;29;20225;-72
2024/01/02 07:23:28;;;;;;;2.05;0.40;;;5.30;99.90;;;;;;4920601;29;20238;-72
2024/01/02 07:25:54;;;;;;;0.93;0.93;;;5.30;99.90;;;;;;4922653;29;20294;-71
2024/01/02 07:28:21;;;;;;;0.40;0.40;;;5.30;99.90;;;;;;4922587;29;20573;-72
2024/01/02 07:30:50;;;;;;;7.70;1.02;;;5.30;99.90;;;;;;4919602;29;20236;-71
2024/01/02 07:33:17;;;;;;;0.65;0.65;;;5.30;99.90;;;;;;4923041;29;20216;-71
2024/01/02 07:35:45;;;;;;;0.40;0.32;;;5.30;99.90;;;;;;4921348;29;20710;-71
2024/01/02 07:38:12;;;;;;;1.10;0.57;;;5.30;99.90;;;;;;4923176;29;20216;-71
2024/01/02 07:40:38;;;;;;;0.65;0.65;;;5.30;99.90;;;;;;4916451;29;20231;-71
2024/01/02 07:43:05;;;;;;;0.93;0.93;;;5.30;99.90;;;;;;4919418;29;20671;-72
2024/01/02 07:45:32;;;;;;;0.77;0.77;;;5.30;99.90;;;;;;4927082;29;20214;-72
2024/01/02 07:47:58;;;;;;;3.58;0.68;;;5.20;99.90;;;;;;4921846;29;20219;-72
2024/01/02 07:50:25;;;;;;;0.88;0.85;;;5.20;99.90;;;;;;4923130;29;20641;-71
2024/01/02 07:52:53;;;;;;;0.45;0.45;;;5.20;99.90;;;;;;4921874;29;20216;-72
2024/01/02 07:55:20;;;;;;;1.83;0.40;;;5.20;99.90;;;;;;4923765;29;20221;-71
2024/01/02 07:57:46;;;;;;;1.00;1.00;;;5.20;99.90;;;;;;4919476;29;20206;-72
2024/01/02 08:00:15;;;;;;;1.33;1.00;;;5.20;99.90;;;;;;4923277;29;20730;-71
2024/01/02 08:02:42;;;;;;;0.90;0.90;;;5.20;99.90;;;;;;4920944;29;20212;-71
2024/01/02 08:05:09;;;;;;;3.92;1.33;;;5.20;99.90;;;;;;4919369;29;20673;-71
2024/01/02 08:07:36;;;;;;;1.23;1.13;;;5.20;99.90;;;;;;4923126;29;20218;-71
2024/01/02 08:10:04;;;;;;;0.57;0.57;;;5.30;99.90;;;;;;4925136;29;20218;-71
2024/01/02 08:12:31;;;;;;;0.95;0.95;;;5.30;99.90;;;;;;4925070;29;20242;-72
2024/01/02 08:14:58;;;;;;;0.82;0.68;;;5.30;99.90;;;;;;4925914;29;20239;-71
2024/01/02 08:17:24;;;;;;;0.22;0.20;;;5.30;99.90;;;;;;4925773;29;20236;-71
2024/01/02 08:19:51;;;;;;;0.77;0.47;;;5.30;99.90;;;;;;4918881;29;20213;-71
2024/01/02 08:22:19;;;;;;;0.50;0.50;;;5.30;99.90;;;;;;4922974;29;20261;-70
2024/01/02 08:24:46;;;;;;;5.43;1.10;;;5.30;99.90;;;;;;4922360;29;20236;-71
2024/01/02 08:27:15;;;;;;;0.82;0.82;;;5.30;99.90;;;;;;4928018;29;20589;-72
2024/01/02 08:29:41;;;;;;;2.13;2.10;;;5.30;99.90;;;;;;4924912;29;20257;-72
2024/01/02 08:32:08;;;;;;;0.60;0.60;;;5.30;99.90;;;;;;4926920;29;20231;-71
2024/01/02 08:34:35;;;;;;;0.95;0.43;;;5.30;99.90;;;;;;4921616;29;20239;-73
2024/01/02 08:37:01;;;;;;;0.20;0.20;;;5.30;99.90;;;;;;4927279;29;20262;-72
2024/01/02 08:39:28;;;;;;;0.35;0.35;;;5.30;99.90;;;;;;4934157;29;20216;-73
2024/01/02 08:41:55;;;;;;;0.70;0.70;;;5.30;99.90;;;;;;4928530;29;20223;-72
2024/01/02 08:44:23;;;;;;;0.93;0.93;;;5.40;99.90;;;;;;4934722;29;20651;-71
2024/01/02 08:46:50;;;;;;;2.47;1.42;;;5.40;99.90;;;;;;4935775;29;20216;-72
2024/01/02 08:49:17;;;;;;;0.73;0.73;;;5.40;99.90;;;;;;4934228;29;20216;-72
2024/01/02 08:51:44;;;;;;;1.15;1.13;;;5.40;99.90;;;;;;4929568;29;20638;-72
2024/01/02 08:54:10;;;;;;;1.13;1.13;;;5.40;99.90;;;;;;4929174;29;20208;-72
2024/01/02 08:56:37;;;;;;;2.25;0.32;;;5.40;99.90;;;;;;4933238;29;21355;-72
2024/01/02 08:59:04;;;;;;;0.70;0.70;;;5.50;99.90;;;;;;4931820;29;20204;-73
2024/01/02 09:01:32;;;;;;;0.95;0.95;;;5.50;99.90;;;;;;4921523;29;20240;-72
2024/01/02 09:03:59;;;;;;;0.35;0.35;;;5.50;99.90;;;;;;4930985;29;20226;-71
2024/01/02 09:06:25;;;;;;;0.77;0.77;;;5.50;99.90;;;;;;4928076;29;21471;-71
2024/01/02 09:08:52;;;;;;;1.38;1.05;;;5.60;99.90;;;;;;4928564;29;20288;-73
2024/01/02 09:11:20;;;;;;;1.90;1.80;;;5.60;99.90;;;;;;4934050;29;20235;-71
2024/01/02 09:13:46;;;;;;;2.08;1.70;;;5.60;99.90;;;;;;4928763;29;20254;-72
2024/01/02 09:16:13;;;;;;;0.38;0.38;;;5.60;99.90;;;;;;4931127;29;20232;-72
2024/01/02 09:18:41;;;;;;;0.90;0.85;;;5.60;99.90;;;;;;4930216;29;20687;-71
2024/01/02 09:21:08;;;;;;;0.90;0.75;;;5.60;99.90;;;;;;4929741;29;20231;-74
2024/01/02 09:23:35;;;;;;;0.43;0.43;;;5.70;99.90;;;;;;4928532;29;20214;-73
2024/01/02 09:26:06;;;;;;;0.65;0.65;;;5.70;99.90;;;;;;4928811;29;20228;-73
2024/01/02 09:28:35;;;;;;;0.95;0.95;;;5.70;99.90;;;;;;4929252;29;20666;-73
2024/01/02 09:31:02;;;;;;;0.77;0.77;;;5.70;99.90;;;;;;4932021;29;20225;-73
2024/01/02 09:33:29;;;;;;;0.95;0.95;;;5.70;99.90;;;;;;4934365;29;20250;-73
2024/01/02 09:35:57;;;;;;;3.33;0.70;;;5.70;99.90;;;;;;4928673;29;20219;-73
2024/01/02 09:38:23;;;;;;;0.75;0.75;;;5.80;99.90;;;;;;4931717;29;20209;-73
2024/01/02 09:41:09;;;;;;;1.73;1.73;;;5.80;99.90;;;;;;4922370;29;20234;-73
2024/01/02 09:43:50;;;;;;;0.75;0.75;;;5.80;99.90;;;;;;4922198;29;20209;-73
2024/01/02 09:46:26;;;;;;;3.58;1.02;;;5.80;99.90;;;;;;4919342;29;20237;-73
2024/01/02 09:49:06;;;;;;;0.45;0.45;;;5.80;99.90;;;;;;4920874;29;20704;-73
2024/01/02 09:51:47;;;;;;;0.63;0.63;;;5.80;99.90;;;;;;4928501;29;20236;-73
2024/01/02 09:54:32;;;;;;;0.40;0.40;;;5.90;99.90;;;;;;4923407;29;20212;-73
2024/01/02 09:57:04;;;;;;;0.90;0.85;;;5.90;99.90;;;;;;4925045;29;20566;-73
2024/01/02 09:59:43;;;;;;;0.77;0.70;;;5.90;99.90;;;;;;4924433;29;20239;-73
2024/01/02 10:02:36;;;;;;;0.45;0.45;;;5.90;99.90;;;;;;4921619;29;20240;-73
2024/01/02 10:05:17;;;;;;;0.65;0.65;;;5.90;99.90;;;;;;4924264;29;20244;-74
2024/01/02 10:08:19;;;;;;;2.45;1.25;;;5.90;99.90;;;;;;4925104;29;20213;-73
2024/01/02 10:10:57;;;;;;;0.43;0.43;;;5.90;99.90;;;;;;4923832;29;20266;-72
2024/01/02 10:13:25;;;;;;;0.50;0.50;;;5.90;99.90;;;;;;4923995;29;20303;-71
2024/01/02 10:16:09;;;;;;;1.15;0.75;;;5.90;99.90;;;;;;4929220;29;20217;-71
2024/01/02 10:18:53;;;;;;;1.10;0.98;;;5.90;99.90;;;;;;4924183;29;20213;-71
2024/01/02 10:21:29;;;;;;;0.55;0.55;;;5.90;99.90;;;;;;4931403;29;20719;-71
2024/01/02 10:24:19;;;;;;;0.60;0.60;;;5.90;99.90;;;;;;4929499;29;20216;-71
2024/01/02 10:26:57;;;;;;;0.73;0.70;;;5.90;99.90;;;;;;4928197;29;20212;-72
2024/01/02 10:29:32;;;;;;;1.08;1.08;;;5.90;99.90;;;;;;4921849;29;20630;-71
2024/01/02 10:32:08;;;;;;;3.05;0.50;;;5.90;99.90;;;;;;4925606;29;20244;-70
2024/01/02 10:34:38;;;;;;;1.48;0.98;;;5.90;99.90;;;;;;4922435;29;20204;-73
2024/01/02 10:37:07;;;;;;;1.30;1.30;;;5.90;99.90;;;;;;4923331;29;20225;-70
2024/01/02 10:39:42;;;;;;;0.25;0.25;;;5.90;99.90;;;;;;4921528;29;20296;-71
2024/01/02 10:42:24;;;;;;;0.90;0.90;;;5.90;99.90;;;;;;4929229;29;20247;-70
2024/01/02 10:45:04;;;;;;;0.60;0.60;;;5.90;99.90;;;;;;4930974;29;20236;-71
2024/01/02 10:47:47;;;;;;;0.65;0.65;;;5.90;99.90;;;;;;4923096;29;20208;-70
2024/01/02 10:50:20;;;;;;;0.50;0.50;;;5.90;99.90;;;;;;4923349;29;20216;-70
2024/01/02 10:52:58;;;;;;;2.97;1.23;;;5.90;99.90;;;;;;4927618;29;20213;-70
2024/01/02 10:55:32;;;;;;;0.80;0.80;;;5.90;99.90;;;;;;4925149;29;20243;-70
2024/01/02 10:58:03;;;;;;;1.65;0.98;;;5.90;99.90;;;;;;4919173;29;20233;-71
2024/01/02 11:00:36;;;;;;;0.70;0.70;;;5.90;99.90;;;;;;4921868;29;20209;-71
2024/01/02 11:03:09;;;;;;;1.75;0.80;;;5.90;99.90;;;;;;4925870;29;20252;-72
2024/01/02 11:05:39;;;;;;;0.90;0.40;;;5.90;99.90;;;;;;4929615;29;20209;-70
2024/01/02 11:08:11;;;;;;;0.73;0.73;;;5.90;99.90;;;;;;4920614;29;20269;-72
2024/01/02 11:10:49;;;;;;;8.98;1.90;;;5.90;99.90;;;;;;4921866;29;20242;-72
2024/01/02 11:13:18;;;;;;;0.70;0.70;;;5.90;99.90;;;;;;4924261;29;20227;-71
2024/01/02 11:15:47;;;;;;;0.75;0.75;;;5.90;99.90;;;;;;4925287;29;20334;-71
2024/01/02 11:18:14;;;;;;;1.35;1.25;;;5.90;99.90;;;;;;4923023;29;20231;-71
2024/01/02 11:20:50;;;;;;;0.20;0.20;;;5.90;99.90;;;;;;4923554;29;20228;-71
2024/01/02 11:23:20;;;;;;;0.20;0.20;;;6.00;99.90;;;;;;4923678;29;20217;-72
2024/01/02 11:25:56;;;;;;;0.35;0.35;;;6.00;99.90;;;;;;4922122;29;20532;-71
2024/01/02 11:28:25;;;;;;;0.60;0.60;;;5.90;99.90;;;;;;4923389;29;20220;-70
2024/01/02 11:30:52;;;;;;;0.77;0.77;;;5.90;99.90;;;;;;4921201;29;20256;-71
2024/01/02 11:33:26;;;;;;;1.65;0.32;;;5.90;99.90;;;;;;4929939;29;20550;-71
2024/01/02 11:36:09;;;;;;;0.40;0.40;;;6.00;99.90;;;;;;4926629;29;20254;-70
2024/01/02 11:38:51;;;;;;;0.60;0.60;;;5.90;99.90;;;;;;4932283;29;20255;-71
2024/01/02 11:41:33;;;;;;;0.30;0.30;;;5.90;99.90;;;;;;4916412;29;20240;-71
2024/01/02 11:44:09;;;;;;;0.60;0.60;;;5.90;99.90;;;;;;4923679;29;20688;-70
2024/01/02 11:46:39;;;;;;;0.80;0.80;;;6.00;99.90;;;;;;4920179;29;20695;-71
2024/01/02 11:49:11;;;;;;;0.85;0.45;;;6.00;99.90;;;;;;4920075;29;20206;-70
2024/01/02 11:51:42;;;;;;;1.05;0.95;;;6.00;99.90;;;;;;4927543;29;20668;-70
2024/01/02 11:54:24;;;;;;;0.60;0.60;;;5.90;99.90;;;;;;4922143;29;20737;-70
2024/01/02 11:56:52;;;;;;;0.80;0.80;;;6.00;99.90;;;;;;4929328;29;20245;-71
2024/01/02 11:59:26;;;;;;;0.73;0.73;;;6.00;99.90;;;;;;4930886;29;20236;-70
2024/01/02 12:02:03;;;;;;;0.50;0.50;;;5.90;99.90;;;;;;4926340;29;20239;-70
2024/01/02 12:05:04;;;;;;;0.40;0.40;;;6.00;99.90;;;;;;4931699;29;20327;-72
2024/01/02 12:07:35;;;;;;;0.55;0.55;;;5.90;99.90;;;;;;4923794;29;20295;-72
2024/01/02 12:10:03;;;;;;;0.90;0.90;;;5.90;99.90;;;;;;4929601;29;20295;-71
2024/01/02 12:12:45;;;;;;;0.30;0.30;;;5.90;99.90;;;;;;4925582;29;20331;-70
2024/01/02 12:15:16;;;;;;;0.40;0.40;;;5.90;99.90;;;;;;4922706;29;20212;-74
2024/01/02 12:17:53;;;;;;;0.20;0.20;;;5.90;99.90;;;;;;4921460;29;20233;-71
2024/01/02 12:20:24;;;;;;;0.38;0.38;;;5.90;99.90;;;;;;4923144;29;20213;-71
2024/01/02 12:22:51;;;;;;;0.30;0.30;;;5.90;99.90;;;;;;4921892;29;20224;-70
2024/01/02 12:25:19;;;;;;;0.50;0.50;;;5.90;99.90;;;;;;4923372;29;20253;-73
2024/01/02 12:27:49;;;;;;;0.60;0.60;;;5.90;99.90;;;;;;4922272;29;20680;-72
2024/01/02 12:30:23;;;;;;;0.35;0.32;;;5.90;99.90;;;;;;4921022;29;20220;-72
2024/01/02 12:33:01;;;;;;;0.60;0.60;;;5.90;99.90;;;;;;4920366;29;20244;-71
2024/01/02 12:35:32;;;;;;;0.50;0.50;;;5.90;99.90;;;;;;4928617;29;20208;-71
2024/01/02 12:38:14;;;;;;;0.32;0.32;;;5.90;99.90;;;;;;4930497;29;20246;-70
2024/01/02 12:40:44;;;;;;;0.30;0.30;;;5.90;99.90;;;;;;4921639;29;20263;-71
2024/01/02 12:43:18;;;;;;;0.35;0.35;;;6.00;99.90;;;;;;4926766;29;20212;-71
2024/01/02 12:45:47;;;;;;;1.05;0.50;;;6.00;99.90;;;;;;4923999;29;20295;-71
2024/01/02 12:48:18;;;;;;;0.20;0.20;;;6.00;99.90;;;;;;4925064;29;20213;-72
2024/01/02 12:50:50;;;;;;;0.68;0.60;;;6.00;99.90;;;;;;4925447;29;20237;-71
2024/01/02 12:53:19;;;;;;;0.40;0.40;;;6.00;99.90;;;;;;4927098;29;20214;-71
2024/01/02 12:55:51;;;;;;;0.30;0.30;;;6.00;99.90;;;;;;4932112;29;20240;-71
2024/01/02 12:58:19;;;;;;;0.50;0.50;;;6.00;99.90;;;;;;4923094;29;20694;-71
2024/01/02 13:00:47;;;;;;;0.50;0.50;;;6.00;99.90;;;;;;4930166;29;20268;-71
2024/01/02 13:03:15;;;;;;;0.88;0.88;;;6.00;99.90;;;;;;4926782;29;20218;-71
2024/01/02 13:05:43;;;;;;;0.77;0.77;;;6.00;99.90;;;;;;4925701;29;20211;-71
2024/01/02 13:08:16;;;;;;;0.93;0.93;;;6.10;99.90;;;;;;4921135;29;20214;-73
2024/01/02 13:10:43;;;;;;;0.40;0.40;;;6.10;99.90;;;;;;4933066;29;20222;-70
2024/01/02 13:13:11;;;;;;;0.40;0.40;;;6.10;99.90;;;;;;4922466;29;20217;-72
2024/01/02 13:15:41;;;;;;;0.40;0.40;;;6.10;99.90;;;;;;4928192;29;20631;-72
2024/01/02 13:18:08;;;;;;;0.52;0.52;;;6.10;99.90;;;;;;4928736;29;20230;-73
2024/01/02 13:20:36;;;;;;;0.35;0.35;;;6.00;99.90;;;;;;4930712;29;20569;-69
2024/01/02 13:23:04;;;;;;;0.20;0.20;;;6.00;99.90;;;;;;4928805;29;20208;-70
2024/01/02 13:25:39;;;;;;;0.38;0.38;;;6.10;99.90;;;;;;4932264;29;20209;-70
2024/01/02 13:28:18;;;;;;;0.30;0.30;;;6.10;99.90;;;;;;4932083;29;20284;-71
2024/01/02 13:30:47;;;;;;;0.20;0.20;;;6.10;99.90;;;;;;4928506;29;20233;-70
2024/01/02 13:33:14;;;;;;;0.60;0.60;;;6.10;99.90;;;;;;4927425;29;20225;-72
2024/01/02 13:35:45;;;;;;;1.10;1.10;;;6.10;99.90;;;;;;4930381;29;20312;-72
2024/01/02 13:38:14;;;;;;;1.85;1.65;;;6.10;99.90;;;;;;4928784;29;20224;-72
2024/01/02 13:40:41;;;;;;;0.68;0.68;;;6.20;99.90;;;;;;4930353;29;20224;-72
2024/01/02 13:43:11;;;;;;;0.30;0.30;;;6.20;99.90;;;;;;4926725;29;20548;-72
2024/01/02 13:45:37;;;;;;;0.40;0.40;;;6.10;99.90;;;;;;4930233;29;20299;-72
2024/01/02 13:48:16;;;;;;;0.30;0.30;;;6.20;99.90;;;;;;4932305;29;20217;-73
2024/01/02 13:50:44;;;;;;;0.70;0.70;;;6.10;99.90;;;;;;4930302;29;20247;-72
2024/01/02 13:53:11;;;;;;;0.57;0.57;;;6.10;99.90;;;;;;4929060;29;20579;-71
2024/01/02 13:55:39;;;;;;;0.30;0.30;;;6.10;99.90;;;;;;4934707;29;20216;-73
2024/01/02 13:58:11;;;;;;;0.60;0.60;;;6.10;99.90;;;;;;4934530;29;20704;-70
2024/01/02 14:00:39;;;;;;;0.45;0.45;;;6.10;99.90;;;;;;4929403;29;20240;-71
2024/01/02 14:03:08;;;;;;;0.20;0.20;;;6.10;99.90;;;;;;4934832;29;20221;-73
2024/01/02 14:05:37;;;;;;;0.60;0.60;;;6.10;99.90;;;;;;4929276;29;20224;-71
2024/01/02 14:08:05;;;;;;;0.70;0.70;;;6.10;99.90;;;;;;4934502;29;20240;-71
2024/01/02 14:10:37;;;;;;;2.40;0.45;;;6.10;99.90;;;;;;4934318;29;20221;-71
2024/01/02 14:13:04;;;;;;;0.88;0.88;;;6.10;99.90;;;;;;4934650;29;20216;-71
2024/01/02 14:15:32;;;;;;;8.02;1.70;;;6.20;99.90;;;;;;4928389;29;20217;-70
2024/01/02 14:18:05;;;;;;;2.17;1.98;;;6.20;99.90;;;;;;4932019;29;20344;-73
2024/01/02 14:20:40;;;;;;;0.50;0.50;;;6.20;99.90;;;;;;4934075;29;20264;-70
2024/01/02 14:23:17;;;;;;;0.20;0.20;;;6.20;99.90;;;;;;4934570;29;20662;-71
2024/01/02 14:25:59;;;;;;;0.90;0.90;;;6.20;99.90;;;;;;4930577;29;20267;-71
2024/01/02 14:28:26;;;;;;;0.60;0.60;;;6.20;99.90;;;;;;4932725;29;20664;-71
2024/01/02 14:31:06;;;;;;;0.77;0.50;;;6.20;99.90;;;;;;4931269;29;20232;-72
2024/01/02 14:33:46;;;;;;;0.55;0.55;;;6.20;99.90;;;;;;4933226;29;20220;-71
2024/01/02 14:36:26;;;;;;;0.50;0.50;;;6.20;99.90;;;;;;4934002;29;20308;-71
2024/01/02 14:39:05;;;;;;;2.95;2.00;;;6.20;99.90;;;;;;4933860;29;20609;-71
2024/01/02 14:41:48;;;;;;;0.55;0.55;;;6.20;99.90;;;;;;4932516;29;20284;-71
2024/01/02 14:44:34;;;;;;;0.77;0.57;;;6.20;99.90;;;;;;4933916;29;20707;-71
2024/01/02 14:47:24;;;;;;;0.65;0.65;;;6.20;99.90;;;;;;4933898;29;20221;-71
2024/01/02 14:49:55;;;;;;;0.75;0.75;;;6.30;99.90;;;;;;4931288;29;20637;-71
2024/01/02 14:53:02;;;;;;;0.40;0.40;;;6.30;99.90;;;;;;4934322;29;20228;-72
2024/01/02 14:55:36;;;;;;;0.52;0.52;;;6.30;99.90;;;;;;4933101;29;20213;-71
2024/01/02 14:58:04;;;;;;;0.60;0.60;;;6.30;99.90;;;;;;4931816;29;20284;-71
2024/01/02 15:00:33;;;;;;;1.20;1.20;;;6.30;99.90;;;;;;4933529;29;20220;-71
2024/01/02 15:03:24;;;;;;;1.05;1.05;;;6.30;99.90;;;;;;4932018;29;20627;-71
2024/01/02 15:06:01;;;;;;;0.40;0.40;;;6.30;99.90;;;;;;4930188;29;20208;-72
2024/01/02 15:08:35;;;;;;;0.73;0.73;;;6.30;99.90;;;;;;4931735;29;20216;-72
2024/01/02 15:11:06;;;;;;;1.27;1.25;;;6.30;99.90;;;;;;4932128;29;20584;-70
2024/01/02 15:13:55;;;;;;;2.00;1.90;;;6.30;99.90;;;;;;4926782;29;20232;-71
2024/01/02 15:16:36;;;;;;;0.73;0.73;;;6.30;99.90;;;;;;4922090;29;20252;-71
2024/01/02 15:19:30;;;;;;;1.10;1.10;;;6.30;99.90;;;;;;4927226;29;20767;-71
2024/01/02 15:22:06;;;;;;;1.48;1.30;;;6.30;99.90;;;;;;4925471;29;20245;-71
2024/01/02 15:24:55;;;;;;;0.93;0.93;;;6.30;99.90;;;;;;4922336;29;20208;-71
2024/01/02 15:27:29;;;;;;;1.33;1.23;;;6.30;99.90;;;;;;4926120;29;20220;-71
2024/01/02 15:29:59;;;;;;;1.67;1.60;;;6.30;99.90;;;;;;4920475;29;20209;-71
2024/01/02 15:32:28;;;;;;;1.50;1.50;;;6.30;99.90;;;;;;4923574;29;20221;-71
2024/01/02 15:35:04;;;;;;;2.17;2.00;;;6.40;99.90;;;;;;4924821;29;20260;-70
2024/01/02 15:37:33;;;;;;;1.45;1.45;;;6.40;99.90;;;;;;4923720;29;20215;-71
2024/01/02 15:40:07;;;;;;;2.40;1.52;;;6.40;99.90;;;;;;4918821;29;20213;-72
2024/01/02 15:42:36;;;;;;;1.55;1.42;;;6.40;99.90;;;;;;4927685;29;20319;-71
2024/01/02 15:45:07;;;;;;;2.20;2.15;;;6.40;99.90;;;;;;4925042;29;20276;-73
2024/01/02 15:47:49;;;;;;;5.20;2.88;;;6.40;99.90;;;;;;4923704;29;20209;-73
2024/01/02 15:50:25;;;;;;;1.77;1.77;;;6.40;99.90;;;;;;4919589;29;20217;-72
2024/01/02 15:52:52;;;;;;;3.15;2.42;;;6.40;99.90;;;;;;4921139;29;20228;-72
2024/01/02 15:55:24;;;;;;;2.55;2.45;;;6.50;99.90;;;;;;4921058;29;20667;-73
2024/01/02 15:57:54;;;;;;;3.45;2.88;;;6.40;99.90;;;;;;4924968;29;20217;-72
2024/01/02 16:00:22;;;;;;;2.22;2.03;;;6.40;99.90;;;;;;4927446;29;20209;-73
2024/01/02 16:03:23;;;;;;;2.72;2.53;;;6.40;99.90;;;;;;4924692;29;20218;-72
2024/01/02 16:06:15;;;;;;;2.67;2.42;;;6.50;99.90;;;;;;4919668;29;20222;-72
2024/01/02 16:08:55;;;;;;;3.58;2.13;;;6.50;99.90;;;;;;4928319;29;20304;-72
2024/01/02 16:11:43;;;;;;;2.55;1.35;;;6.50;99.90;;;;;;4923931;29;20261;-73
2024/01/02 16:14:46;;;;;;;1.88;1.77;;;6.50;99.90;;;;;;4928648;29;20233;-72
2024/01/02 16:17:42;;;;;;;3.20;1.85;;;6.50;99.90;;;;;;4930378;29;20228;-73
2024/01/02 16:20:33;;;;;;;3.75;3.55;;;6.50;99.90;;;;;;4916934;29;20611;-72
2024/01/02 16:23:35;;;;;;;3.17;2.97;;;6.50;99.90;;;;;;4925145;29;20233;-72
2024/01/02 16:26:18;;;;;;;3.90;2.85;;;6.50;99.90;;;;;;4919830;29;20974;-72
2024/01/02 16:29:05;;;;;;;3.80;3.20;;;6.60;99.90;;;;;;4922102;29;20209;-72
2024/01/02 16:31:50;;;;;;;3.10;2.90;;;6.50;99.90;;;;;;4932862;29;20232;-73
2024/01/02 16:35:06;;;;;;;2.97;2.75;;;6.60;99.90;;;;;;4932005;29;20216;-73
2024/01/02 16:38:03;;;;;;;4.05;3.10;;;6.60;99.90;;;;;;4932336;29;20206;-73
2024/01/02 16:40:49;;;;;;;3.63;3.33;;;6.60;99.90;;;;;;4934588;29;20221;-71
2024/01/02 16:43:17;;;;;;;3.92;3.28;;;6.60;99.90;;;;;;4932623;29;20297;-73
2024/01/02 16:45:45;;;;;;;4.15;3.17;;;6.60;99.90;;;;;;4928383;29;20225;-72
2024/01/02 16:48:15;;;;;;;2.33;2.05;;;6.60;99.90;;;;;;4930394;29;20217;-72
2024/01/02 16:50:43;;;;;;;5.22;2.47;;;6.60;99.90;;;;;;4930288;29;20594;-73
2024/01/02 16:53:13;;;;;;;2.17;2.08;;;6.60;99.90;;;;;;4926739;29;20205;-71
2024/01/02 16:55:41;;;;;;;2.42;2.22;;;6.60;99.90;;;;;;4933574;29;20210;-74
2024/01/02 16:58:14;;;;;;;3.22;3.00;;;6.60;99.90;;;;;;4927207;29;20222;-72
2024/01/02 17:00:43;;;;;;;1.83;1.73;;;6.60;99.90;;;;;;4922577;29;20238;-72
2024/01/02 17:03:12;;;;;;;2.35;2.03;;;6.60;99.90;;;;;;4934935;29;20352;-72
2024/01/02 17:05:39;;;;;;;2.85;2.25;;;6.60;99.90;;;;;;4929088;29;20217;-72
2024/01/02 17:08:07;;;;;;;2.90;2.10;;;6.70;99.90;;;;;;4930036;29;20320;-72
2024/01/02 17:10:34;;;;;;;1.85;1.75;;;6.70;99.90;;;;;;4925145;29;20620;-72
2024/01/02 17:13:03;;;;;;;2.17;2.08;;;6.70;99.90;;;;;;4926103;29;20228;-71
2024/01/02 17:15:31;;;;;;;2.38;2.22;;;6.70;99.90;;;;;;4928739;29;20226;-73
2024/01/02 17:17:58;;;;;;;2.70;1.35;;;6.70;99.90;;;;;;4927612;29;20240;-72
2024/01/02 17:20:27;;;;;;;1.98;1.98;;;6.70;99.90;;;;;;4929930;29;20423;-73
2024/01/02 17:22:54;;;;;;;1.90;1.70;;;6.70;99.90;;;;;;4926203;29;20210;-73
2024/01/02 17:25:25;;;;;;;1.20;1.20;;;6.70;99.90;;;;;;4928963;29;20203;-72
2024/01/02 17:27:52;;;;;;;1.60;1.50;;;6.70;99.90;;;;;;4927061;29;20232;-71
2024/01/02 17:30:23;;;;;;;4.40;2.30;;;6.80;99.90;;;;;;4929770;29;20222;-72
2024/01/02 17:32:51;;;;;;;3.33;2.92;;;6.80;99.90;;;;;;4931592;29;20209;-72
2024/01/02 17:35:18;;;;;;;3.95;2.10;;;6.80;99.90;;;;;;4925646;29;20245;-72
2024/01/02 17:37:46;;;;;;;2.72;2.53;;;6.80;99.90;;;;;;4928950;28;20221;-72
2024/01/02 17:40:13;;;;;;;3.17;2.83;;;6.80;99.90;;;;;;4920795;29;20601;-72
2024/01/02 17:42:41;;;;;;;3.55;2.20;;;6.80;99.90;;;;;;4930410;29;20214;-72
2024/01/02 17:45:21;;;;;;;1.35;1.25;;;6.80;99.90;;;;;;4925778;29;20217;-71
2024/01/02 17:47:55;;;;;;;1.90;1.80;;;6.80;99.90;;;;;;4928202;29;20273;-72
2024/01/02 17:50:22;;;;;;;2.10;1.80;;;6.90;99.90;;;;;;4931082;29;20206;-71
2024/01/02 17:52:53;;;;;;;1.80;1.70;;;6.90;99.90;;;;;;4931303;29;20333;-73
2024/01/02 17:55:23;;;;;;;2.55;2.35;;;6.90;99.90;;;;;;4929331;29;20206;-73
2024/01/02 17:57:58;;;;;;;1.67;1.67;;;6.90;99.90;;;;;;4931844;29;20213;-72
2024/01/02 18:00:27;;;;;;;2.63;2.40;;;6.90;99.90;;;;;;4927344;29;20257;-73
2024/01/02 18:03:01;;;;;;;2.58;2.38;;;6.90;99.90;;;;;;4932942;29;20836;-73
2024/01/02 18:05:34;;;;;;;2.47;1.67;;;6.90;99.90;;;;;;4928296;29;20267;-73
2024/01/02 18:08:19;;;;;;;2.20;2.00;;;6.90;99.90;;;;;;4932186;29;20210;-73
2024/01/02 18:11:05;;;;;;;2.10;2.00;;;7.00;99.90;;;;;;4927861;29;20234;-73
2024/01/02 18:13:40;;;;;;;1.90;1.80;;;7.00;99.90;;;;;;4925291;29;20332;-73
2024/01/02 18:16:20;;;;;;;1.52;1.42;;;7.00;99.90;;;;;;4924392;29;20636;-72
2024/01/02 18:19:04;;;;;;;3.53;2.40;;;7.00;99.90;;;;;;4924976;29;20712;-72
2024/01/02 18:21:48;;;;;;;3.10;2.85;;;7.00;99.90;;;;;;4926488;29;20237;-72
2024/01/02 18:24:30;;;;;;;2.92;2.72;;;7.00;99.90;;;;;;4931622;29;20218;-72